createdAt,value
2019-03-10T00:02:11.400Z,95529.00
2019-03-10T00:04:59.137Z,95523.00
2019-03-10T00:07:47.604Z,95536.00
2019-03-10T00:10:35.344Z,95539.00
2019-03-10T00:13:23.242Z,95538.00
2019-03-10T00:16:11.361Z,95530.00
2019-03-10T00:18:59.682Z,95540.00
2019-03-10T00:21:47.816Z,95538.00
2019-03-10T00:24:35.850Z,95535.00
2019-03-10T00:27:24.109Z,95531.00
2019-03-10T00:30:12.729Z,95527.00
2019-03-10T00:33:01.328Z,95525.00
2019-03-10T00:35:49.450Z,95525.00
2019-03-10T00:38:37.465Z,95525.00
2019-03-10T00:41:25.496Z,95536.00
2019-03-10T00:44:13.556Z,95521.00
2019-03-10T00:47:02.000Z,95518.00
2019-03-10T00:49:50.444Z,95505.00
2019-03-10T00:52:38.619Z,95499.00
2019-03-10T00:55:26.694Z,95497.00
2019-03-10T00:58:15.064Z,95485.00
2019-03-10T01:01:03.822Z,95486.00
2019-03-10T01:03:51.930Z,95485.00
2019-03-10T01:06:39.914Z,95480.00
2019-03-10T01:09:28.691Z,95468.00
2019-03-10T01:12:17.020Z,95465.00
2019-03-10T01:15:05.138Z,95466.00
2019-03-10T01:17:53.311Z,95468.00
2019-03-10T01:20:41.948Z,95462.00
2019-03-10T01:23:29.877Z,95476.00
2019-03-10T01:26:18.040Z,95467.00
2019-03-10T01:29:06.546Z,95464.00
2019-03-10T01:31:56.968Z,95463.00
2019-03-10T01:34:44.777Z,95462.00
2019-03-10T01:37:32.713Z,95445.00
2019-03-10T01:40:20.757Z,95435.00
2019-03-10T01:43:09.250Z,95434.00
2019-03-10T01:45:57.336Z,95415.00
2019-03-10T01:48:45.367Z,95420.00
2019-03-10T01:57:05.950Z,95415.00
2019-03-10T01:59:54.713Z,95398.00
2019-03-10T02:02:43.240Z,95374.00
2019-03-10T02:05:31.679Z,95368.00
2019-03-10T02:08:19.853Z,95362.00
2019-03-10T02:11:07.910Z,95360.00
2019-03-10T02:13:56.323Z,95351.00
2019-03-10T02:16:44.898Z,95341.00
2019-03-10T02:19:33.107Z,95340.00
2019-03-10T02:22:21.348Z,95341.00
2019-03-10T02:25:09.802Z,95339.00
2019-03-10T02:27:58.525Z,95333.00
2019-03-10T02:30:46.674Z,95328.00
2019-03-10T02:33:34.677Z,95322.00
2019-03-10T02:36:23.053Z,95325.00
2019-03-10T02:39:11.022Z,95322.00
2019-03-10T02:41:59.041Z,95339.00
2019-03-10T02:50:58.016Z,95317.00
2019-03-10T02:53:46.073Z,95309.00
2019-03-10T02:56:34.163Z,95309.00
2019-03-10T02:59:22.124Z,95312.00
2019-03-10T03:02:10.168Z,95286.00
2019-03-10T03:04:58.163Z,95297.00
2019-03-10T03:07:46.149Z,95296.00
2019-03-10T03:10:34.210Z,95294.00
2019-03-10T03:13:22.151Z,95289.00
2019-03-10T03:16:10.270Z,95288.00
2019-03-10T03:18:58.240Z,95295.00
2019-03-10T03:21:46.782Z,95286.00
2019-03-10T03:24:34.972Z,95274.00
2019-03-10T03:27:23.041Z,95270.00
2019-03-10T03:30:11.148Z,95248.00
2019-03-10T03:32:59.373Z,95259.00
2019-03-10T03:35:47.237Z,95273.00
2019-03-10T03:38:35.244Z,95254.00
2019-03-10T03:41:23.713Z,95260.00
2019-03-10T03:44:11.384Z,95270.00
2019-03-10T03:46:59.799Z,95268.00
2019-03-10T03:49:48.347Z,95280.00
2019-03-10T03:52:36.840Z,95293.00
2019-03-10T03:55:24.752Z,95289.00
2019-03-10T04:01:36.840Z,95270.00
2019-03-10T04:04:24.811Z,95277.00
2019-03-10T04:07:13.192Z,95268.00
2019-03-10T04:10:01.268Z,95266.00
2019-03-10T04:12:49.219Z,95246.00
2019-03-10T04:15:37.784Z,95245.00
2019-03-10T04:18:25.655Z,95226.00
2019-03-10T04:21:14.029Z,95232.00
2019-03-10T04:24:01.692Z,95232.00
2019-03-10T04:26:49.915Z,95225.00
2019-03-10T04:29:38.334Z,95234.00
2019-03-10T04:32:26.473Z,95231.00
2019-03-10T04:35:14.607Z,95223.00
2019-03-10T04:38:02.609Z,95215.00
2019-03-10T04:40:50.767Z,95214.00
2019-03-10T04:43:39.464Z,95216.00
2019-03-10T04:46:27.769Z,95223.00
2019-03-10T04:49:15.772Z,95216.00
2019-03-10T04:52:03.708Z,95214.00
2019-03-10T04:55:16.701Z,95208.00
2019-03-10T04:58:10.256Z,95195.00
2019-03-10T05:00:59.078Z,95189.00
2019-03-10T05:03:47.118Z,95192.00
2019-03-10T05:06:35.657Z,95173.00
2019-03-10T05:12:09.450Z,95161.00
2019-03-10T05:14:57.938Z,95134.00
2019-03-10T05:17:45.910Z,95139.00
2019-03-10T05:20:34.198Z,95115.00
2019-03-10T05:23:22.647Z,95110.00
2019-03-10T05:26:11.272Z,95098.00
2019-03-10T05:28:59.852Z,95086.00
2019-03-10T05:31:48.166Z,95079.00
2019-03-10T05:34:36.158Z,95063.00
2019-03-10T05:37:24.164Z,95057.00
2019-03-10T05:40:12.134Z,95054.00
2019-03-10T05:46:19.756Z,95017.00
2019-03-10T05:49:08.372Z,95020.00
2019-03-10T05:51:56.558Z,95017.00
2019-03-10T05:54:44.646Z,95010.00
2019-03-10T05:57:32.994Z,94991.00
2019-03-10T06:00:20.858Z,94982.00
2019-03-10T06:03:09.019Z,94981.00
2019-03-10T06:05:57.478Z,94989.00
2019-03-10T06:08:45.524Z,94982.00
2019-03-10T06:11:33.362Z,94971.00
2019-03-10T06:14:21.294Z,94974.00
2019-03-10T06:17:09.375Z,94959.00
2019-03-10T06:19:57.702Z,94948.00
2019-03-10T06:22:45.727Z,94958.00
2019-03-10T06:25:35.051Z,94966.00
2019-03-10T06:28:22.894Z,94953.00
2019-03-10T06:31:10.976Z,94948.00
2019-03-10T06:33:59.300Z,94939.00
2019-03-10T06:36:47.670Z,94945.00
2019-03-10T06:39:35.916Z,94912.00
2019-03-10T06:42:23.827Z,94898.00
2019-03-10T06:45:11.688Z,94902.00
2019-03-10T06:47:59.558Z,94899.00
2019-03-10T06:50:48.240Z,94885.00
2019-03-10T06:53:36.502Z,94874.00
2019-03-10T06:56:24.911Z,94873.00
2019-03-10T06:59:12.880Z,94866.00
2019-03-10T07:02:01.436Z,94874.00
2019-03-10T07:04:49.577Z,94866.00
2019-03-10T07:07:37.303Z,94868.00
2019-03-10T07:10:25.829Z,94852.00
2019-03-10T07:13:13.970Z,94846.00
2019-03-10T07:16:02.113Z,94840.00
2019-03-10T07:18:50.217Z,94830.00
2019-03-10T07:21:38.885Z,94832.00
2019-03-10T07:24:27.594Z,94835.00
2019-03-10T07:27:15.423Z,94820.00
2019-03-10T07:36:50.858Z,94808.00
2019-03-10T07:40:00.525Z,94806.00
2019-03-10T07:43:13.387Z,94807.00
2019-03-10T07:49:40.227Z,94796.00
2019-03-10T08:05:39.742Z,94775.00
2019-03-10T08:11:53.121Z,94758.00
2019-03-10T08:21:39.538Z,94778.00
2019-03-10T08:24:36.342Z,94796.00
2019-03-10T08:27:37.378Z,94768.00
2019-03-10T08:30:43.509Z,94786.00
2019-03-10T08:43:24.332Z,94761.00
2019-03-10T08:46:28.207Z,94785.00
2019-03-10T08:49:23.921Z,94771.00
2019-03-10T08:52:20.887Z,94761.00
2019-03-10T08:55:15.112Z,94776.00
2019-03-10T08:58:25.366Z,94760.00
2019-03-10T09:04:38.388Z,94756.00
2019-03-10T09:07:36.566Z,94764.00
2019-03-10T09:20:36.421Z,94750.00
2019-03-10T09:23:43.208Z,94720.00
2019-03-10T09:36:43.561Z,94723.00
2019-03-10T09:39:36.205Z,94743.00
2019-03-10T09:42:39.904Z,94770.00
2019-03-10T09:45:42.743Z,94732.00
2019-03-10T09:52:10.477Z,94699.00
2019-03-10T09:55:12.814Z,94726.00
2019-03-10T10:01:22.217Z,94748.00
2019-03-10T10:07:49.186Z,94747.00
2019-03-10T10:10:51.180Z,94753.00
2019-03-10T10:14:01.398Z,94745.00
2019-03-10T10:26:45.123Z,94756.00
2019-03-10T10:32:59.494Z,94781.00
2019-03-10T10:35:57.231Z,94758.00
2019-03-10T10:39:10.059Z,94773.00
2019-03-10T10:42:14.783Z,94786.00
2019-03-10T10:45:15.721Z,94792.00
2019-03-10T10:51:42.503Z,94765.00
2019-03-10T10:58:07.628Z,94748.00
2019-03-10T11:04:41.949Z,94731.00
2019-03-10T11:11:11.425Z,94712.00
2019-03-10T11:20:56.326Z,94705.00
2019-03-10T11:37:08.331Z,94649.00
2019-03-10T11:43:32.192Z,94655.00
2019-03-10T11:46:29.663Z,94631.00
2019-03-10T11:52:38.992Z,94628.00
2019-03-10T11:55:48.554Z,94618.00
2019-03-10T11:58:50.246Z,94614.00
2019-03-10T12:01:52.823Z,94607.00
2019-03-10T12:11:22.711Z,94610.00
2019-03-10T12:14:10.891Z,94592.00
2019-03-10T12:16:59.086Z,94581.00
2019-03-10T12:19:46.868Z,94598.00
2019-03-10T12:22:34.950Z,94607.00
2019-03-10T12:31:12.505Z,94570.00
2019-03-10T12:34:00.685Z,94580.00
2019-03-10T12:36:50.901Z,94577.00
2019-03-10T12:39:39.468Z,94567.00
2019-03-10T12:42:27.827Z,94596.00
2019-03-10T12:45:15.805Z,94564.00
2019-03-10T12:48:03.915Z,94597.00
2019-03-10T12:50:52.476Z,94568.00
2019-03-10T12:53:40.658Z,94549.00
2019-03-10T12:56:29.065Z,94584.00
2019-03-10T12:59:17.192Z,94556.00
2019-03-10T13:02:05.347Z,94552.00
2019-03-10T13:04:53.969Z,94545.00
2019-03-10T13:07:41.697Z,94547.00
2019-03-10T13:10:29.862Z,94579.00
2019-03-10T13:13:21.024Z,94555.00
2019-03-10T13:16:12.207Z,94538.00
2019-03-10T13:18:59.660Z,94560.00
2019-03-10T13:21:48.115Z,94558.00
2019-03-10T13:24:36.597Z,94559.00
2019-03-10T13:27:24.466Z,94548.00
2019-03-10T13:30:12.609Z,94555.00
2019-03-10T13:33:00.761Z,94550.00
2019-03-10T13:35:48.616Z,94554.00
2019-03-10T13:38:44.814Z,94519.00
2019-03-10T13:41:32.661Z,94544.00
2019-03-10T13:44:21.407Z,94543.00
2019-03-10T13:47:09.414Z,94546.00
2019-03-10T13:49:58.078Z,94534.00
2019-03-10T13:52:45.865Z,94545.00
2019-03-10T13:55:34.535Z,94538.00
2019-03-10T13:58:22.474Z,94573.00
2019-03-10T14:01:10.832Z,94499.00
2019-03-10T14:10:23.321Z,94533.00
2019-03-10T14:13:11.376Z,94522.00
2019-03-10T14:15:59.360Z,94569.00
2019-03-10T14:18:48.004Z,94490.00
2019-03-10T14:21:35.936Z,94540.00
2019-03-10T14:24:24.004Z,94547.00
2019-03-10T14:27:12.539Z,94505.00
2019-03-10T14:30:00.412Z,94504.00
2019-03-10T14:32:48.537Z,94513.00
2019-03-10T14:35:36.649Z,94512.00
2019-03-10T14:38:24.341Z,94551.00
2019-03-10T14:41:12.321Z,94529.00
2019-03-10T14:44:00.251Z,94547.00
2019-03-10T14:46:48.192Z,94543.00
2019-03-10T14:49:36.519Z,94548.00
2019-03-10T14:52:24.902Z,94571.00
2019-03-10T14:55:13.803Z,94556.00
2019-03-10T14:58:02.609Z,94545.00
2019-03-10T15:00:50.934Z,94566.00
2019-03-10T15:03:38.919Z,94556.00
2019-03-10T15:06:27.042Z,94564.00
2019-03-10T15:09:15.586Z,94574.00
2019-03-10T15:12:03.517Z,94574.00
2019-03-10T15:14:51.785Z,94546.00
2019-03-10T15:17:39.854Z,94549.00
2019-03-10T15:20:27.953Z,94586.00
2019-03-10T15:26:21.745Z,94555.00
2019-03-10T15:29:10.069Z,94570.00
2019-03-10T15:31:58.249Z,94575.00
2019-03-10T15:34:46.522Z,94566.00
2019-03-10T15:37:34.313Z,94595.00
2019-03-10T15:40:22.307Z,94623.00
2019-03-10T15:43:11.162Z,94616.00
2019-03-10T15:45:59.114Z,94585.00
2019-03-10T15:48:47.619Z,94610.00
2019-03-10T15:51:36.502Z,94618.00
2019-03-10T15:54:24.953Z,94611.00
2019-03-10T15:57:13.648Z,94638.00
2019-03-10T16:00:01.951Z,94652.00
2019-03-10T16:02:50.639Z,94663.00
2019-03-10T16:05:38.859Z,94639.00
2019-03-10T16:08:27.783Z,94663.00
2019-03-10T16:11:15.875Z,94658.00
2019-03-10T16:14:03.838Z,94672.00
2019-03-10T16:16:51.910Z,94673.00
2019-03-10T16:19:40.225Z,94641.00
2019-03-10T16:22:28.685Z,94670.00
2019-03-10T16:25:17.064Z,94684.00
2019-03-10T16:28:05.205Z,94681.00
2019-03-10T16:30:53.154Z,94665.00
2019-03-10T16:33:40.949Z,94699.00
2019-03-10T16:36:28.810Z,94685.00
2019-03-10T16:42:02.953Z,94708.00
2019-03-10T16:44:51.656Z,94704.00
2019-03-10T16:47:39.413Z,94704.00
2019-03-10T16:50:26.821Z,94709.00
2019-03-10T16:53:15.422Z,94705.00
2019-03-10T16:56:04.001Z,94742.00
2019-03-10T16:58:52.041Z,94726.00
2019-03-10T17:01:40.535Z,94728.00
2019-03-10T17:04:30.679Z,94736.00
2019-03-10T17:07:19.013Z,94742.00
2019-03-10T17:10:07.011Z,94722.00
2019-03-10T17:12:55.089Z,94710.00
2019-03-10T17:15:43.462Z,94740.00
2019-03-10T17:18:32.104Z,94750.00
2019-03-10T17:21:20.527Z,94753.00
2019-03-10T17:24:08.308Z,94758.00
2019-03-10T17:26:56.227Z,94777.00
2019-03-10T17:29:44.460Z,94798.00
2019-03-10T17:32:32.787Z,94772.00
2019-03-10T17:35:20.732Z,94780.00
2019-03-10T17:38:08.825Z,94775.00
2019-03-10T17:40:57.250Z,94791.00
2019-03-10T17:43:45.778Z,94834.00
2019-03-10T17:46:33.736Z,94806.00
2019-03-10T17:49:22.161Z,94828.00
2019-03-10T17:52:14.592Z,94825.00
2019-03-10T17:55:00.477Z,94825.00
2019-03-10T17:57:48.731Z,94819.00
2019-03-10T18:00:37.519Z,94824.00
2019-03-10T18:03:25.922Z,94826.00
2019-03-10T18:06:14.334Z,94833.00
2019-03-10T18:12:07.792Z,94844.00
2019-03-10T18:14:55.931Z,94864.00
2019-03-10T18:17:44.619Z,94862.00
2019-03-10T18:20:32.898Z,94877.00
2019-03-10T18:23:21.047Z,94885.00
2019-03-10T18:26:09.570Z,94868.00
2019-03-10T18:28:57.665Z,94860.00
2019-03-10T18:31:45.882Z,94880.00
2019-03-10T18:34:34.209Z,94917.00
2019-03-10T18:37:22.326Z,94909.00
2019-03-10T18:40:10.993Z,94920.00
2019-03-10T18:42:58.856Z,94893.00
2019-03-10T18:45:47.424Z,94918.00
2019-03-10T18:48:36.340Z,94916.00
2019-03-10T18:51:24.831Z,94921.00
2019-03-10T18:54:13.449Z,94907.00
2019-03-10T18:57:03.665Z,94938.00
2019-03-10T18:59:53.173Z,94931.00
2019-03-10T19:05:36.518Z,94933.00
2019-03-10T19:08:25.357Z,94935.00
2019-03-10T19:11:13.356Z,94963.00
2019-03-10T19:14:01.200Z,94961.00
2019-03-10T19:16:49.017Z,94969.00
2019-03-10T19:19:37.559Z,94971.00
2019-03-10T19:22:25.828Z,94984.00
2019-03-10T19:25:13.957Z,95001.00
2019-03-10T19:28:02.652Z,94998.00
2019-03-10T19:30:50.543Z,94996.00
2019-03-10T19:36:25.920Z,95006.00
2019-03-10T19:39:14.005Z,95012.00
2019-03-10T19:44:57.790Z,95020.00
2019-03-10T19:47:46.121Z,94992.00
2019-03-10T19:50:34.204Z,95004.00
2019-03-10T19:53:22.060Z,95027.00
2019-03-10T19:56:10.291Z,95011.00
2019-03-10T19:58:58.369Z,95012.00
2019-03-10T20:01:47.245Z,95023.00
2019-03-10T20:04:35.294Z,95039.00
2019-03-10T20:07:23.991Z,95036.00
2019-03-10T20:10:12.180Z,95039.00
2019-03-10T20:13:00.492Z,95054.00
2019-03-10T20:15:49.430Z,95050.00
2019-03-10T20:18:37.828Z,95059.00
2019-03-10T20:21:26.691Z,95060.00
2019-03-10T20:24:14.471Z,95072.00
2019-03-10T20:30:20.725Z,95084.00
2019-03-10T20:35:41.932Z,95090.00
2019-03-10T20:38:29.962Z,95080.00
2019-03-10T20:44:21.471Z,95092.00
2019-03-10T20:47:10.200Z,95081.00
2019-03-10T20:49:58.885Z,95137.00
2019-03-10T20:52:46.866Z,95112.00
2019-03-10T20:55:34.716Z,95139.00
2019-03-10T20:58:23.154Z,95132.00
2019-03-10T21:01:11.256Z,95155.00
2019-03-10T21:03:59.318Z,95180.00
2019-03-10T21:06:47.280Z,95165.00
2019-03-10T21:09:35.989Z,95182.00
2019-03-10T21:12:24.067Z,95191.00
2019-03-10T21:15:11.959Z,95196.00
2019-03-10T21:17:59.867Z,95201.00
2019-03-10T21:20:48.303Z,95243.00
2019-03-10T21:23:36.405Z,95251.00
2019-03-10T21:26:24.423Z,95257.00
2019-03-10T21:29:13.856Z,95274.00
2019-03-10T21:32:01.892Z,95271.00
2019-03-10T21:34:50.059Z,95293.00
2019-03-10T21:37:38.201Z,95289.00
2019-03-10T21:40:26.181Z,95289.00
2019-03-10T21:43:14.520Z,95292.00
2019-03-10T21:46:03.043Z,95313.00
2019-03-10T21:48:51.603Z,95310.00
2019-03-10T21:51:39.668Z,95298.00
2019-03-10T21:54:27.908Z,95332.00
2019-03-10T21:57:16.314Z,95329.00
2019-03-10T22:00:04.857Z,95364.00
2019-03-10T22:02:53.136Z,95353.00
2019-03-10T22:05:41.097Z,95350.00
2019-03-10T22:08:29.662Z,95376.00
2019-03-10T22:11:17.920Z,95404.00
2019-03-10T22:14:05.898Z,95399.00
2019-03-10T22:16:54.085Z,95400.00
2019-03-10T22:19:41.876Z,95403.00
2019-03-10T22:22:29.984Z,95396.00
2019-03-10T22:25:18.124Z,95407.00
2019-03-10T22:28:06.020Z,95414.00
2019-03-10T22:30:54.103Z,95406.00
2019-03-10T22:33:42.121Z,95429.00
2019-03-10T22:36:30.010Z,95427.00
2019-03-10T22:39:18.401Z,95428.00
2019-03-10T22:42:06.791Z,95421.00
2019-03-10T22:47:40.146Z,95442.00
2019-03-10T22:50:27.951Z,95438.00
2019-03-10T22:53:16.571Z,95439.00
2019-03-10T22:56:04.413Z,95454.00
2019-03-10T22:58:52.474Z,95463.00
2019-03-10T23:01:40.494Z,95468.00
2019-03-10T23:04:28.398Z,95466.00
2019-03-10T23:07:16.820Z,95490.00
2019-03-10T23:10:05.659Z,95472.00
2019-03-10T23:12:54.051Z,95482.00
2019-03-10T23:15:42.241Z,95492.00
2019-03-10T23:18:30.368Z,95505.00
2019-03-10T23:21:18.187Z,95520.00
2019-03-10T23:24:06.349Z,95545.00
2019-03-10T23:26:54.323Z,95539.00
2019-03-10T23:29:42.207Z,95544.00
2019-03-10T23:32:30.221Z,95562.00
2019-03-10T23:35:18.069Z,95534.00
2019-03-10T23:38:05.911Z,95564.00
2019-03-10T23:40:54.075Z,95553.00
2019-03-10T23:43:42.224Z,95564.00
2019-03-10T23:46:30.269Z,95568.00
2019-03-10T23:49:18.442Z,95565.00
2019-03-10T23:52:06.251Z,95579.00
2019-03-10T23:54:54.701Z,95560.00
2019-03-10T23:57:42.675Z,95563.00
